Latest Weather Observations for Mount Isa

IDQ60801

Issued at 7:05 pm EST Tuesday 2 September 2014 (issued every 30 minutes, with the page automatically refreshed every 10 minutes)

About weather observations | Map of weather stations | Latest weather observations for QLD | Other Formats
Station Details ID: 029127 Name: MOUNT ISA AERO Lat: -20.68 Lon: 139.49 Height: 340.3 m
Data from the previous 72 hours. | See also: Recent months at Mount Isa
Date/Time
EST
Temp
°C
App
Temp
°C
Dew
Point
Rel
Hum
%
Delta-T
°C
Wind Press
QNH
hPa
Press
MSL
hPa
Rain
since 9 am
mm
Dir
 
Spd
km/h
Gust
km/h
Spd
kts
Gust
kts
02/07:00pm 23.4 15.8 0.8 22 10.6 S 30 33 16 18 1019.0 - 0.0
02/06:30pm 24.2 17.0 0.5 21 11.1 S 28 37 15 20 1018.5 - 0.0
02/06:00pm 25.2 17.9 0.0 19 11.8 S 28 37 15 20 1018.2 1016.8 0.0
02/05:30pm 25.9 17.9 0.3 18 12.1 S 32 37 17 20 1018.1 - 0.0
02/05:00pm 26.6 18.5 -0.1 17 12.6 S 32 44 17 24 1017.9 - 0.0
02/04:30pm 27.0 18.7 -0.4 16 12.9 S 33 41 18 22 1017.7 - 0.0
02/04:00pm 27.4 19.2 -1.1 15 13.3 S 32 43 17 23 1017.6 - 0.0
02/03:30pm 27.5 21.0 0.0 16 13.1 S 24 33 13 18 1017.7 - 0.0
02/03:00pm 27.5 19.5 0.4 17 13.0 S 32 43 17 23 1018.2 1016.8 0.0
02/02:30pm 27.6 19.8 1.4 18 12.8 S 32 39 17 21 1018.6 - 0.0
02/02:00pm 27.5 19.4 1.1 18 12.8 S 33 46 18 25 1018.9 - 0.0
02/01:50pm 27.6 19.8 1.4 18 12.8 SSE 32 50 17 27 1019.1 - 0.0
02/01:30pm 27.0 18.9 0.8 18 12.6 SSE 33 44 18 24 1019.4 - 0.0
02/01:00pm 26.8 18.3 0.7 18 12.5 SSE 35 46 19 25 1019.5 - 0.0
02/12:30pm 25.9 18.0 1.1 20 11.9 SSE 32 44 17 24 1019.9 - 0.0
02/12:00pm 25.5 17.3 0.6 19 11.8 S 33 44 18 24 1020.1 1018.8 0.0
02/11:30am 24.8 15.8 0.2 20 11.5 S 37 48 20 26 1020.7 - 0.0
02/11:00am 23.9 15.4 1.0 22 10.8 S 35 46 19 25 1020.9 - 0.0
02/10:30am 22.7 14.8 0.8 23 10.2 SSE 32 39 17 21 1021.4 - 0.0
02/10:00am 22.5 13.7 1.5 25 9.9 SSE 37 50 20 27 1021.5 - 0.0
02/09:30am 21.1 11.9 1.3 27 9.2 SSE 39 50 21 27 1021.4 - 0.0
02/09:00am 20.1 10.8 0.8 27 8.8 SSE 39 50 21 27 1021.2 1019.8 0.0
02/08:30am 19.5 11.4 0.8 28 8.5 SSE 33 46 18 25 1020.9 - 0.0
02/08:00am 18.5 11.7 0.7 30 8.0 SSE 26 32 14 17 1020.6 - 0.0
02/07:30am 17.5 10.5 -0.8 29 7.9 SSE 26 33 14 18 1020.1 - 0.0
02/07:00am 17.3 10.3 -3.6 24 8.5 SSE 24 30 13 16 1019.9 - 0.0
02/06:30am 17.8 8.9 -6.7 18 9.4 S 32 39 17 21 1019.1 - 0.0
02/06:00am 16.7 7.8 -11.8 13 9.7 S 30 33 16 18 1018.4 1017.0 0.0
02/05:56am 16.8 7.9 -12.2 12 9.8 S 30 33 16 18 1018.4 - 0.0
02/05:36am 13.0 7.9 -9.7 19 7.7 S 11 15 6 8 1017.9 - 0.0
02/05:30am 7.8 2.9 -7.0 34 5.0 S 11 15 6 8 1017.4 - 0.0
02/05:00am 7.0 4.3 -5.8 39 4.4 CALM 0 0 0 0 1017.1 - 0.0
02/04:30am 7.0 4.4 -4.5 44 4.1 CALM 0 0 0 0 1016.9 - 0.0
02/04:00am 8.4 5.7 -5.5 37 4.9 CALM 0 0 0 0 1016.8 - 0.0
02/03:30am 8.2 5.6 -4.6 40 4.6 CALM 0 0 0 0 1016.8 - 0.0
02/03:00am 9.3 5.4 -6.9 31 5.6 W 6 7 3 4 1017.0 1015.7 0.0
02/02:30am 9.1 6.5 -5.1 36 5.1 CALM 0 4 0 2 1017.4 - 0.0
02/02:00am 9.2 6.5 -5.8 34 5.3 CALM 0 2 0 1 1017.6 - 0.0
02/01:30am 9.8 6.2 -3.9 38 5.1 W 6 9 3 5 1017.8 - 0.0
02/01:00am 9.7 7.2 -4.0 38 5.1 CALM 0 0 0 0 1017.9 - 0.0
02/12:30am 10.5 7.7 -3.1 38 5.2 SSW 2 7 1 4 1017.9 - 0.0
02/12:00am 11.0 7.2 -3.8 35 5.6 W 7 7 4 4 1017.9 1016.5 0.0
 
Date/Time
EST
Temp
°C
App
Temp
°C
Dew
Point
Rel
Hum
%
Delta-T
°C
Wind Press
QNH
hPa
Press
MSL
hPa
Rain
since 9 am
mm
Dir
 
Spd
km/h
Gust
km/h
Spd
kts
Gust
kts
01/11:30pm 12.0 8.3 -3.2 34 5.9 SW 7 9 4 5 1017.9 - 0.0
01/11:00pm 12.6 8.9 -3.3 33 6.2 WSW 7 7 4 4 1017.9 - 0.0
01/10:30pm 13.0 8.9 -3.3 32 6.4 WNW 9 9 5 5 1017.7 - 0.0
01/10:00pm 14.0 10.2 -3.5 29 6.9 W 7 9 4 5 1017.6 - 0.0
01/09:30pm 15.7 12.7 -1.8 30 7.3 WSW 4 7 2 4 1017.2 - 0.0
01/09:00pm 17.0 14.0 -2.1 27 8.0 SSE 4 9 2 5 1016.9 1015.6 0.0
01/08:30pm 18.8 15.3 -1.3 25 8.7 S 7 9 4 5 1016.3 - 0.0
01/08:00pm 21.4 16.4 -1.4 21 10.1 SW 15 15 8 8 1015.8 - 0.0
01/07:30pm 23.8 19.0 -2.8 17 11.7 SW 13 15 7 8 1015.6 - 0.0
01/07:00pm 26.4 21.4 -4.2 13 13.4 SW 13 17 7 9 1015.2 - 0.0
01/06:30pm 28.0 22.8 -5.9 10 14.6 SW 13 15 7 8 1015.0 - 0.0
01/06:00pm 30.1 24.0 -7.9 8 16.1 WSW 17 26 9 14 1014.8 1013.4 0.0
01/05:30pm 31.4 26.0 -8.4 7 16.9 WSW 13 19 7 10 1014.5 - 0.0
01/05:00pm 31.9 27.0 -7.1 7 17.0 SSW 11 19 6 10 1014.4 - 0.0
01/04:30pm 31.4 26.3 -5.1 9 16.4 SW 13 28 7 15 1014.3 - 0.0
01/04:00pm 31.7 26.5 -5.9 8 16.7 WSW 13 22 7 12 1014.5 - 0.0
01/03:30pm 31.1 26.1 -8.2 7 16.7 ENE 11 17 6 9 1014.6 - 0.0
01/03:00pm 31.3 25.6 -7.4 8 16.7 SSW 15 22 8 12 1014.9 1013.5 0.0
01/02:30pm 30.6 25.4 -6.1 9 16.1 SSW 13 20 7 11 1015.3 - 0.0
01/02:00pm 29.6 24.2 -7.9 8 15.8 NE 13 19 7 10 1015.7 - 0.0
01/01:30pm 30.8 25.8 -8.7 7 16.6 N 11 19 6 10 1016.1 - 0.0
01/01:00pm 30.2 25.7 -7.0 8 16.0 ENE 9 13 5 7 1016.5 - 0.0
01/12:30pm 29.2 24.4 -5.6 10 15.2 ESE 11 17 6 9 1017.1 - 0.0
01/12:00pm 28.5 24.1 -5.5 10 14.8 N 9 17 5 9 1017.8 1016.4 0.0
01/11:30am 28.1 23.3 -5.7 10 14.6 NNE 11 17 6 9 1018.4 - 0.0
01/11:00am 27.6 22.5 -5.0 11 14.2 NNE 13 20 7 11 1018.7 - 0.0
01/10:30am 27.1 22.1 -4.4 12 13.8 NNE 13 20 7 11 1019.0 - 0.0
01/10:00am 26.1 21.2 -3.1 14 13.0 NNE 13 19 7 10 1019.0 - 0.0
01/09:30am 23.6 19.1 -2.9 17 11.6 NE 11 15 6 8 1018.8 - 0.0
01/09:00am 20.9 18.6 -2.2 21 10.0 CALM 0 0 0 0 1018.7 1017.3 0.0
01/08:30am 17.6 15.4 -1.3 27 8.1 CALM 0 0 0 0 1018.6 - 0.0
01/08:00am 14.0 11.9 -0.8 36 6.2 CALM 0 0 0 0 1018.5 - 0.0
01/07:30am 8.2 5.9 -2.3 47 4.0 CALM 0 0 0 0 1018.3 - 0.0
01/07:00am 5.6 3.3 -2.6 55 3.0 CALM 0 0 0 0 1018.0 - 0.0
01/06:30am 5.8 3.5 -2.3 56 3.0 CALM 0 0 0 0 1017.6 - 0.0
01/06:00am 6.0 3.7 -2.4 55 3.1 CALM 0 0 0 0 1017.0 1015.7 0.0
01/05:30am 6.8 4.4 -3.0 49 3.6 CALM 0 0 0 0 1016.4 - 0.0
01/05:00am 6.8 4.5 -2.6 51 3.5 CALM 0 0 0 0 1016.3 - 0.0
01/04:30am 7.1 4.8 -2.2 51 3.5 CALM 0 0 0 0 1016.3 - 0.0
01/04:00am 7.4 5.0 -3.5 46 4.0 CALM 0 0 0 0 1016.0 - 0.0
01/03:30am 8.1 5.7 -2.8 46 4.1 CALM 0 0 0 0 1015.7 - 0.0
01/03:00am 8.0 5.7 -2.6 47 4.0 CALM 0 0 0 0 1015.9 1014.5 0.0
01/02:30am 8.8 6.5 -2.5 45 4.3 CALM 0 0 0 0 1015.8 - 0.0
01/02:00am 9.3 6.9 -2.8 42 4.6 CALM 0 0 0 0 1016.0 - 0.0
01/01:30am 9.6 7.3 -2.6 42 4.7 CALM 0 0 0 0 1016.0 - 0.0
01/01:00am 10.8 8.4 -2.9 38 5.3 CALM 0 0 0 0 1016.2 - 0.0
01/12:30am 11.9 8.4 -1.1 40 5.3 S 7 7 4 4 1016.4 - 0.0
01/12:00am 13.7 10.1 -2.4 32 6.5 S 7 9 4 5 1016.3 1015.4 0.0
 
Date/Time
EST
Temp
°C
App
Temp
°C
Dew
Point
Rel
Hum
%
Delta-T
°C
Wind Press
QNH
hPa
Press
MSL
hPa
Rain
since 9 am
mm
Dir
 
Spd
km/h
Gust
km/h
Spd
kts
Gust
kts
31/11:30pm 14.4 10.8 -2.3 31 6.8 S 7 7 4 4 1016.5 - 0.0
31/11:00pm 13.3 9.8 -3.2 31 6.5 S 6 9 3 5 1016.5 - 0.0
31/10:30pm 14.6 10.8 -3.5 28 7.2 SSW 7 9 4 5 1016.4 - 0.0
31/10:00pm 13.8 10.2 -3.9 29 6.9 S 6 7 3 4 1016.5 - 0.0
31/09:30pm 14.3 10.9 -1.7 33 6.6 SSW 6 7 3 4 1016.5 - 0.0
31/09:00pm 14.6 12.4 -1.9 32 6.8 CALM 0 0 0 0 1016.3 1015.4 0.0
31/08:30pm 15.8 13.6 -1.6 30 7.3 CALM 0 0 0 0 1016.0 - 0.0
31/08:00pm 16.3 13.9 -3.0 26 7.9 CALM 0 0 0 0 1015.6 - 0.0
31/07:30pm 18.2 15.9 -2.5 24 8.7 CALM 0 2 0 1 1015.2 - 0.0
31/07:00pm 21.4 18.0 -1.8 21 10.2 SSE 6 7 3 4 1014.9 - 0.0
31/06:30pm 25.9 21.9 0.4 19 12.1 SSE 11 17 6 9 1014.8 - 0.0
31/06:00pm 27.6 22.4 -6.6 10 14.5 SSE 13 20 7 11 1014.7 1013.8 0.0
31/05:30pm 28.5 22.4 -7.2 9 15.1 S 17 24 9 13 1014.5 - 0.0
31/05:00pm 28.6 23.8 -6.3 10 15.0 S 11 19 6 10 1014.5 - 0.0
31/04:30pm 29.4 24.0 -8.6 8 15.8 S 13 19 7 10 1014.4 - 0.0
31/04:00pm 28.6 23.3 -7.5 9 15.2 SSW 13 22 7 12 1014.6 - 0.0
31/03:30pm 29.3 23.0 -5.7 10 15.3 SSE 19 24 10 13 1014.7 - 0.0
31/03:00pm 28.6 24.3 -5.1 11 14.8 WSW 9 13 5 7 1014.9 1014.0 0.0
31/02:30pm 28.2 22.3 -5.3 11 14.6 S 17 26 9 14 1015.2 - 0.0
31/02:00pm 28.2 23.3 -3.7 12 14.3 SW 13 19 7 10 1015.8 - 0.0
31/01:30pm 28.4 23.5 -7.0 9 15.0 SE 11 22 6 12 1016.1 - 0.0
31/01:00pm 27.3 21.9 -4.8 12 14.0 ESE 15 22 8 12 1016.4 - 0.0
31/12:30pm 27.8 21.9 -6.0 10 14.5 ESE 17 30 9 16 1017.0 - 0.0
31/12:00pm 26.9 21.9 -4.4 12 13.7 ESE 13 24 7 13 1017.7 1016.8 0.0
31/11:30am 26.6 22.3 -4.7 12 13.6 ESE 9 24 5 13 1018.0 - 0.0
31/11:00am 26.4 20.6 -4.8 12 13.5 ESE 17 24 9 13 1018.3 - 0.0
31/10:30am 25.5 19.7 -4.8 13 13.0 E 17 24 9 13 1018.7 - 0.0
31/10:00am 24.9 19.6 -3.9 14 12.5 ENE 15 19 8 10 1018.7 - 0.0
31/09:30am 24.5 20.0 -3.0 16 12.1 E 11 15 6 8 1018.7 - 0.0
31/09:00am 22.2 18.9 -1.0 21 10.4 ENE 6 11 3 6 1018.6 1017.7 0.0
31/08:30am 19.3 16.1 -0.7 26 8.8 NNE 6 9 3 5 1018.7 - 0.0
31/08:00am 18.1 15.4 0.4 30 7.9 NE 4 7 2 4 1018.4 - 0.0
31/07:30am 14.5 11.6 -1.4 33 6.6 S 4 9 2 5 1018.1 - 0.0
31/07:00am 12.2 10.0 -1.7 38 5.6 CALM 0 6 0 3 1017.9 - 0.0
31/06:56am 15.4 12.2 -3.2 27 7.5 S 4 7 2 4 1017.9 - 0.0
31/06:30am 10.4 6.0 -2.1 41 4.9 S 11 11 6 6 1017.7 - 0.0
31/06:00am 13.1 11.1 -0.2 40 5.6 CALM 0 0 0 0 1017.4 1016.5 0.0
31/05:30am 15.0 10.4 -0.9 33 6.7 S 13 15 7 8 1016.9 - 0.0
31/05:00am 16.4 11.6 -2.5 27 7.8 S 13 13 7 7 1016.9 - 0.0
31/04:30am 15.2 10.2 -0.9 33 6.8 S 15 15 8 8 1016.8 - 0.0
31/04:00am 15.1 10.2 -0.7 34 6.7 S 15 15 8 8 1016.7 - 0.0
31/03:30am 17.3 12.3 -1.5 27 8.0 S 15 17 8 9 1016.7 - 0.0
31/03:00am 17.9 12.9 -1.5 26 8.3 S 15 17 8 9 1016.8 1016.0 0.0
31/02:30am 18.6 13.6 -1.3 26 8.6 S 15 17 8 9 1016.9 - 0.0
31/02:00am 18.8 13.7 -1.7 25 8.8 S 15 17 8 9 1017.1 - 0.0
31/01:30am 16.7 12.7 0.3 33 7.2 S 11 13 6 7 1017.1 - 0.0
31/01:00am 18.7 14.5 -0.7 27 8.5 S 11 13 6 7 1017.2 - 0.0
31/12:30am 19.2 16.0 -0.5 26 8.7 S 6 7 3 4 1017.4 - 0.0
31/12:00am 18.3 15.0 0.0 29 8.1 S 7 9 4 5 1017.5 1016.6 0.0
 
Date/Time
EST
Temp
°C
App
Temp
°C
Dew
Point
Rel
Hum
%
Delta-T
°C
Wind Press
QNH
hPa
Press
MSL
hPa
Rain
since 9 am
mm
Dir
 
Spd
km/h
Gust
km/h
Spd
kts
Gust
kts
30/11:30pm 17.7 14.3 2.0 35 7.2 S 9 11 5 6 1017.6 - 0.0
30/11:00pm 19.8 14.6 0.3 27 8.8 S 17 17 9 9 1017.7 - 0.0
30/10:30pm 20.2 15.4 0.0 26 9.1 S 15 17 8 9 1017.6 - 0.0
30/10:00pm 21.3 16.8 -0.5 23 9.8 S 13 15 7 8 1017.4 - 0.0
30/09:51pm 20.4 15.9 -0.4 25 9.3 S 13 17 7 9 1017.4 - 0.0
30/09:30pm 15.4 12.3 0.2 35 6.6 S 6 7 3 4 1017.2 - 0.0
30/09:09pm 16.9 13.6 -1.5 28 7.8 S 6 7 3 4 1017.2 - 0.0
30/09:00pm 16.1 14.1 0.0 33 7.0 CALM 0 6 0 3 1017.2 1016.4 0.0
30/08:59pm 16.1 13.8 0.3 34 6.9 SSW 2 6 1 3 1017.2 - 0.0
30/08:30pm 16.1 14.1 0.0 33 7.0 CALM 0 0 0 0 1016.9 - 0.0
30/08:00pm 17.9 14.4 1.4 33 7.5 SSE 9 11 5 6 1016.5 - 0.0
30/07:30pm 19.9 16.1 -1.0 24 9.2 S 9 11 5 6 1016.0 - 0.0

Other Formats:

Comma delimited format used in spreadsheet applications
http://www.bom.gov.au/fwo/IDQ60801/IDQ60801.94332.axf

JavaScript Object Notation format (JSON) in row-major order
http://www.bom.gov.au/fwo/IDQ60801/IDQ60801.94332.json